sensor_id;sensor_type;location;lat;lon;timestamp;P1;durP1;ratioP1;P2;durP2;ratioP2
10851;SDS011;5479;52.046;6.314;2023-01-19T00:01:32;16.63;;;12.33;;
10851;SDS011;5479;52.046;6.314;2023-01-19T00:03:59;15.90;;;11.50;;
10851;SDS011;5479;52.046;6.314;2023-01-19T00:06:27;14.57;;;11.23;;
10851;SDS011;5479;52.046;6.314;2023-01-19T00:08:57;14.23;;;11.57;;
10851;SDS011;5479;52.046;6.314;2023-01-19T00:11:25;16.63;;;12.37;;
10851;SDS011;5479;52.046;6.314;2023-01-19T00:13:53;15.33;;;11.33;;
10851;SDS011;5479;52.046;6.314;2023-01-19T00:16:22;19.80;;;12.43;;
10851;SDS011;5479;52.046;6.314;2023-01-19T00:18:51;18.20;;;12.30;;
10851;SDS011;5479;52.046;6.314;2023-01-19T00:21:19;17.13;;;13.13;;
10851;SDS011;5479;52.046;6.314;2023-01-19T00:23:48;16.43;;;12.00;;
10851;SDS011;5479;52.046;6.314;2023-01-19T00:26:18;19.30;;;13.00;;
10851;SDS011;5479;52.046;6.314;2023-01-19T00:28:47;19.20;;;13.30;;
10851;SDS011;5479;52.046;6.314;2023-01-19T00:31:16;17.03;;;12.30;;
10851;SDS011;5479;52.046;6.314;2023-01-19T00:33:47;15.53;;;12.17;;
10851;SDS011;5479;52.046;6.314;2023-01-19T00:36:17;16.13;;;12.57;;
10851;SDS011;5479;52.046;6.314;2023-01-19T00:38:45;16.37;;;12.00;;
10851;SDS011;5479;52.046;6.314;2023-01-19T00:41:13;16.30;;;12.13;;
10851;SDS011;5479;52.046;6.314;2023-01-19T00:43:42;16.77;;;11.97;;
10851;SDS011;5479;52.046;6.314;2023-01-19T00:46:09;15.33;;;11.83;;
10851;SDS011;5479;52.046;6.314;2023-01-19T00:48:37;15.83;;;11.00;;
10851;SDS011;5479;52.046;6.314;2023-01-19T00:51:06;16.27;;;11.43;;
10851;SDS011;5479;52.046;6.314;2023-01-19T00:53:34;16.13;;;11.73;;
10851;SDS011;5479;52.046;6.314;2023-01-19T00:56:02;17.10;;;12.13;;
10851;SDS011;5479;52.046;6.314;2023-01-19T00:58:30;13.73;;;10.67;;
10851;SDS011;5479;52.046;6.314;2023-01-19T01:00:58;17.10;;;11.67;;
10851;SDS011;5479;52.046;6.314;2023-01-19T01:03:28;14.17;;;11.10;;
10851;SDS011;5479;52.046;6.314;2023-01-19T01:05:56;14.27;;;12.10;;
10851;SDS011;5479;52.046;6.314;2023-01-19T01:08:26;16.77;;;11.47;;
10851;SDS011;5479;52.046;6.314;2023-01-19T01:10:54;15.67;;;11.93;;
10851;SDS011;5479;52.046;6.314;2023-01-19T01:13:23;16.67;;;11.90;;
10851;SDS011;5479;52.046;6.314;2023-01-19T01:15:51;15.57;;;12.03;;
10851;SDS011;5479;52.046;6.314;2023-01-19T01:18:20;15.57;;;11.67;;
10851;SDS011;5479;52.046;6.314;2023-01-19T01:20:49;15.97;;;12.13;;
10851;SDS011;5479;52.046;6.314;2023-01-19T01:23:17;18.53;;;13.00;;
10851;SDS011;5479;52.046;6.314;2023-01-19T01:25:49;18.27;;;12.07;;
10851;SDS011;5479;52.046;6.314;2023-01-19T01:28:17;17.70;;;12.87;;
10851;SDS011;5479;52.046;6.314;2023-01-19T01:30:45;17.70;;;12.20;;
10851;SDS011;5479;52.046;6.314;2023-01-19T01:33:13;15.97;;;12.53;;
10851;SDS011;5479;52.046;6.314;2023-01-19T01:35:41;16.77;;;12.90;;
10851;SDS011;5479;52.046;6.314;2023-01-19T01:38:09;18.77;;;12.87;;
10851;SDS011;5479;52.046;6.314;2023-01-19T01:40:37;18.80;;;12.63;;
10851;SDS011;5479;52.046;6.314;2023-01-19T01:43:08;17.97;;;13.50;;
10851;SDS011;5479;52.046;6.314;2023-01-19T01:45:38;16.87;;;13.10;;
10851;SDS011;5479;52.046;6.314;2023-01-19T01:48:08;19.70;;;13.90;;
10851;SDS011;5479;52.046;6.314;2023-01-19T01:50:40;19.10;;;13.73;;
10851;SDS011;5479;52.046;6.314;2023-01-19T01:53:33;19.73;;;13.60;;
10851;SDS011;5479;52.046;6.314;2023-01-19T01:56:03;18.47;;;13.20;;
10851;SDS011;5479;52.046;6.314;2023-01-19T01:58:36;16.47;;;12.33;;
10851;SDS011;5479;52.046;6.314;2023-01-19T02:01:05;21.60;;;13.73;;
10851;SDS011;5479;52.046;6.314;2023-01-19T02:03:52;17.23;;;12.50;;
10851;SDS011;5479;52.046;6.314;2023-01-19T02:06:20;16.00;;;13.00;;
10851;SDS011;5479;52.046;6.314;2023-01-19T02:08:49;17.17;;;12.93;;
10851;SDS011;5479;52.046;6.314;2023-01-19T02:11:39;15.63;;;11.80;;
10851;SDS011;5479;52.046;6.314;2023-01-19T02:14:27;18.40;;;13.63;;
10851;SDS011;5479;52.046;6.314;2023-01-19T02:16:55;15.83;;;12.40;;
10851;SDS011;5479;52.046;6.314;2023-01-19T02:19:23;16.03;;;12.50;;
10851;SDS011;5479;52.046;6.314;2023-01-19T02:21:57;18.07;;;12.53;;
10851;SDS011;5479;52.046;6.314;2023-01-19T02:24:31;16.57;;;12.47;;
10851;SDS011;5479;52.046;6.314;2023-01-19T02:26:59;16.73;;;13.13;;
10851;SDS011;5479;52.046;6.314;2023-01-19T02:29:28;18.50;;;13.03;;
10851;SDS011;5479;52.046;6.314;2023-01-19T02:31:56;16.90;;;13.30;;
10851;SDS011;5479;52.046;6.314;2023-01-19T02:34:26;18.13;;;13.00;;
10851;SDS011;5479;52.046;6.314;2023-01-19T02:36:55;16.77;;;13.83;;
10851;SDS011;5479;52.046;6.314;2023-01-19T02:39:26;16.90;;;13.27;;
10851;SDS011;5479;52.046;6.314;2023-01-19T02:42:00;16.00;;;12.50;;
10851;SDS011;5479;52.046;6.314;2023-01-19T02:44:32;17.20;;;12.90;;
10851;SDS011;5479;52.046;6.314;2023-01-19T02:47:02;15.63;;;12.80;;
10851;SDS011;5479;52.046;6.314;2023-01-19T02:49:31;17.03;;;13.27;;
10851;SDS011;5479;52.046;6.314;2023-01-19T02:51:58;16.50;;;12.90;;
10851;SDS011;5479;52.046;6.314;2023-01-19T02:54:31;15.50;;;12.80;;
10851;SDS011;5479;52.046;6.314;2023-01-19T02:57:20;15.57;;;12.83;;
10851;SDS011;5479;52.046;6.314;2023-01-19T03:00:08;15.10;;;12.00;;
10851;SDS011;5479;52.046;6.314;2023-01-19T03:02:50;14.60;;;12.07;;
10851;SDS011;5479;52.046;6.314;2023-01-19T03:05:32;15.73;;;12.30;;
10851;SDS011;5479;52.046;6.314;2023-01-19T03:08:10;16.27;;;12.37;;
10851;SDS011;5479;52.046;6.314;2023-01-19T03:10:46;15.37;;;11.90;;
10851;SDS011;5479;52.046;6.314;2023-01-19T03:13:23;13.30;;;10.90;;
10851;SDS011;5479;52.046;6.314;2023-01-19T03:15:56;14.13;;;11.37;;
10851;SDS011;5479;52.046;6.314;2023-01-19T03:18:30;13.87;;;11.27;;
10851;SDS011;5479;52.046;6.314;2023-01-19T03:21:00;13.40;;;11.10;;
10851;SDS011;5479;52.046;6.314;2023-01-19T03:23:33;15.33;;;11.40;;
10851;SDS011;5479;52.046;6.314;2023-01-19T03:26:04;15.57;;;11.90;;
10851;SDS011;5479;52.046;6.314;2023-01-19T03:28:39;15.77;;;11.10;;
10851;SDS011;5479;52.046;6.314;2023-01-19T03:31:09;14.60;;;11.30;;
10851;SDS011;5479;52.046;6.314;2023-01-19T03:33:42;13.80;;;11.37;;
10851;SDS011;5479;52.046;6.314;2023-01-19T03:36:17;15.03;;;11.73;;
10851;SDS011;5479;52.046;6.314;2023-01-19T03:38:49;13.77;;;11.67;;
10851;SDS011;5479;52.046;6.314;2023-01-19T03:41:20;14.73;;;11.57;;
10851;SDS011;5479;52.046;6.314;2023-01-19T03:43:52;14.53;;;10.37;;
10851;SDS011;5479;52.046;6.314;2023-01-19T03:46:21;12.97;;;10.43;;
10851;SDS011;5479;52.046;6.314;2023-01-19T03:48:51;12.87;;;10.60;;
10851;SDS011;5479;52.046;6.314;2023-01-19T03:51:20;12.27;;;9.97;;
10851;SDS011;5479;52.046;6.314;2023-01-19T03:53:48;11.83;;;9.60;;
10851;SDS011;5479;52.046;6.314;2023-01-19T03:56:17;11.33;;;9.43;;
10851;SDS011;5479;52.046;6.314;2023-01-19T03:58:46;12.60;;;9.40;;
10851;SDS011;5479;52.046;6.314;2023-01-19T04:01:16;11.87;;;9.30;;
10851;SDS011;5479;52.046;6.314;2023-01-19T04:03:48;10.73;;;8.73;;
10851;SDS011;5479;52.046;6.314;2023-01-19T04:06:16;12.63;;;9.50;;
10851;SDS011;5479;52.046;6.314;2023-01-19T04:08:46;11.30;;;9.20;;
10851;SDS011;5479;52.046;6.314;2023-01-19T04:11:15;10.30;;;8.40;;
10851;SDS011;5479;52.046;6.314;2023-01-19T04:13:44;9.97;;;8.30;;
10851;SDS011;5479;52.046;6.314;2023-01-19T04:16:12;9.67;;;7.87;;
10851;SDS011;5479;52.046;6.314;2023-01-19T04:18:47;8.87;;;7.17;;
10851;SDS011;5479;52.046;6.314;2023-01-19T04:21:15;10.07;;;8.07;;
10851;SDS011;5479;52.046;6.314;2023-01-19T04:23:43;8.50;;;6.87;;
10851;SDS011;5479;52.046;6.314;2023-01-19T04:26:11;8.70;;;6.83;;
10851;SDS011;5479;52.046;6.314;2023-01-19T04:28:39;9.67;;;7.13;;
10851;SDS011;5479;52.046;6.314;2023-01-19T04:31:08;8.33;;;6.70;;
10851;SDS011;5479;52.046;6.314;2023-01-19T04:33:35;9.70;;;7.00;;
10851;SDS011;5479;52.046;6.314;2023-01-19T04:36:05;8.60;;;6.67;;
10851;SDS011;5479;52.046;6.314;2023-01-19T04:38:34;9.63;;;6.83;;
10851;SDS011;5479;52.046;6.314;2023-01-19T04:41:02;9.37;;;6.63;;
10851;SDS011;5479;52.046;6.314;2023-01-19T04:43:30;8.37;;;5.90;;
10851;SDS011;5479;52.046;6.314;2023-01-19T04:45:58;8.17;;;6.23;;
10851;SDS011;5479;52.046;6.314;2023-01-19T04:48:26;8.53;;;6.30;;
10851;SDS011;5479;52.046;6.314;2023-01-19T04:50:53;7.73;;;6.20;;
10851;SDS011;5479;52.046;6.314;2023-01-19T04:53:23;8.63;;;6.00;;
10851;SDS011;5479;52.046;6.314;2023-01-19T04:55:51;8.80;;;5.90;;
10851;SDS011;5479;52.046;6.314;2023-01-19T04:58:21;7.70;;;5.93;;
10851;SDS011;5479;52.046;6.314;2023-01-19T05:00:49;7.63;;;5.50;;
10851;SDS011;5479;52.046;6.314;2023-01-19T05:03:18;7.50;;;5.50;;
10851;SDS011;5479;52.046;6.314;2023-01-19T05:05:46;7.10;;;5.00;;
10851;SDS011;5479;52.046;6.314;2023-01-19T05:08:14;7.30;;;4.43;;
10851;SDS011;5479;52.046;6.314;2023-01-19T05:10:43;6.67;;;4.10;;
10851;SDS011;5479;52.046;6.314;2023-01-19T05:13:11;6.40;;;3.70;;
10851;SDS011;5479;52.046;6.314;2023-01-19T05:15:39;5.17;;;3.07;;
10851;SDS011;5479;52.046;6.314;2023-01-19T05:18:08;5.40;;;2.80;;
10851;SDS011;5479;52.046;6.314;2023-01-19T05:20:36;6.13;;;2.40;;
10851;SDS011;5479;52.046;6.314;2023-01-19T05:23:04;3.93;;;2.37;;
10851;SDS011;5479;52.046;6.314;2023-01-19T05:25:32;4.23;;;2.37;;
10851;SDS011;5479;52.046;6.314;2023-01-19T05:28:03;4.00;;;2.43;;
10851;SDS011;5479;52.046;6.314;2023-01-19T05:30:31;5.03;;;2.63;;
10851;SDS011;5479;52.046;6.314;2023-01-19T05:32:59;5.07;;;2.30;;
10851;SDS011;5479;52.046;6.314;2023-01-19T05:35:27;4.97;;;2.53;;
10851;SDS011;5479;52.046;6.314;2023-01-19T05:37:55;4.40;;;2.53;;
10851;SDS011;5479;52.046;6.314;2023-01-19T05:40:23;5.13;;;2.70;;
10851;SDS011;5479;52.046;6.314;2023-01-19T05:42:50;5.37;;;2.90;;
10851;SDS011;5479;52.046;6.314;2023-01-19T05:45:20;5.73;;;2.60;;
10851;SDS011;5479;52.046;6.314;2023-01-19T05:47:49;5.53;;;2.90;;
10851;SDS011;5479;52.046;6.314;2023-01-19T05:50:17;5.07;;;2.70;;
10851;SDS011;5479;52.046;6.314;2023-01-19T05:52:45;6.43;;;3.00;;
10851;SDS011;5479;52.046;6.314;2023-01-19T05:55:13;5.70;;;3.03;;
10851;SDS011;5479;52.046;6.314;2023-01-19T05:57:42;7.00;;;3.10;;
10851;SDS011;5479;52.046;6.314;2023-01-19T06:00:10;9.27;;;3.73;;
10851;SDS011;5479;52.046;6.314;2023-01-19T06:02:40;6.27;;;3.37;;
10851;SDS011;5479;52.046;6.314;2023-01-19T06:05:08;5.73;;;2.90;;
10851;SDS011;5479;52.046;6.314;2023-01-19T06:07:37;7.20;;;3.47;;
10851;SDS011;5479;52.046;6.314;2023-01-19T06:10:07;7.00;;;3.17;;
10851;SDS011;5479;52.046;6.314;2023-01-19T06:12:37;6.50;;;3.53;;
10851;SDS011;5479;52.046;6.314;2023-01-19T06:15:06;9.03;;;3.70;;
10851;SDS011;5479;52.046;6.314;2023-01-19T06:17:35;7.47;;;3.47;;
10851;SDS011;5479;52.046;6.314;2023-01-19T06:20:05;9.93;;;3.80;;
10851;SDS011;5479;52.046;6.314;2023-01-19T06:22:33;6.97;;;3.63;;
10851;SDS011;5479;52.046;6.314;2023-01-19T06:25:01;6.83;;;3.30;;
10851;SDS011;5479;52.046;6.314;2023-01-19T06:27:29;7.00;;;3.33;;
10851;SDS011;5479;52.046;6.314;2023-01-19T06:29:57;7.00;;;3.50;;
10851;SDS011;5479;52.046;6.314;2023-01-19T06:32:25;6.97;;;3.03;;
10851;SDS011;5479;52.046;6.314;2023-01-19T06:34:53;6.90;;;3.27;;
10851;SDS011;5479;52.046;6.314;2023-01-19T06:37:22;6.63;;;3.17;;
10851;SDS011;5479;52.046;6.314;2023-01-19T06:39:52;7.43;;;2.80;;
10851;SDS011;5479;52.046;6.314;2023-01-19T06:42:20;6.80;;;2.83;;
10851;SDS011;5479;52.046;6.314;2023-01-19T06:44:49;6.73;;;3.20;;
10851;SDS011;5479;52.046;6.314;2023-01-19T06:47:18;8.63;;;2.90;;
10851;SDS011;5479;52.046;6.314;2023-01-19T06:49:46;7.47;;;3.27;;
10851;SDS011;5479;52.046;6.314;2023-01-19T06:52:14;8.60;;;3.03;;
10851;SDS011;5479;52.046;6.314;2023-01-19T06:54:45;8.10;;;3.00;;
10851;SDS011;5479;52.046;6.314;2023-01-19T06:57:13;8.17;;;2.80;;
10851;SDS011;5479;52.046;6.314;2023-01-19T06:59:42;8.80;;;3.00;;
10851;SDS011;5479;52.046;6.314;2023-01-19T07:02:10;5.80;;;2.70;;
10851;SDS011;5479;52.046;6.314;2023-01-19T07:04:38;6.53;;;2.50;;
10851;SDS011;5479;52.046;6.314;2023-01-19T07:07:05;8.20;;;3.37;;
10851;SDS011;5479;52.046;6.314;2023-01-19T07:09:33;6.37;;;2.73;;
10851;SDS011;5479;52.046;6.314;2023-01-19T07:12:03;7.40;;;2.80;;
10851;SDS011;5479;52.046;6.314;2023-01-19T07:14:32;6.33;;;2.60;;
10851;SDS011;5479;52.046;6.314;2023-01-19T07:16:59;6.80;;;2.90;;
10851;SDS011;5479;52.046;6.314;2023-01-19T07:19:28;7.07;;;2.83;;
10851;SDS011;5479;52.046;6.314;2023-01-19T07:21:56;5.67;;;2.93;;
10851;SDS011;5479;52.046;6.314;2023-01-19T07:24:24;6.80;;;2.70;;
10851;SDS011;5479;52.046;6.314;2023-01-19T07:26:52;7.50;;;2.90;;
10851;SDS011;5479;52.046;6.314;2023-01-19T07:29:21;6.73;;;2.60;;
10851;SDS011;5479;52.046;6.314;2023-01-19T07:31:49;8.90;;;3.00;;
10851;SDS011;5479;52.046;6.314;2023-01-19T07:34:19;7.97;;;3.00;;
10851;SDS011;5479;52.046;6.314;2023-01-19T07:36:47;6.73;;;2.53;;
10851;SDS011;5479;52.046;6.314;2023-01-19T07:39:16;7.27;;;2.90;;
10851;SDS011;5479;52.046;6.314;2023-01-19T07:41:46;7.83;;;2.90;;
10851;SDS011;5479;52.046;6.314;2023-01-19T07:44:15;7.90;;;2.60;;
10851;SDS011;5479;52.046;6.314;2023-01-19T07:46:44;6.83;;;2.50;;
10851;SDS011;5479;52.046;6.314;2023-01-19T07:49:12;8.03;;;2.80;;
10851;SDS011;5479;52.046;6.314;2023-01-19T07:51:40;6.73;;;2.63;;
10851;SDS011;5479;52.046;6.314;2023-01-19T07:54:09;11.57;;;3.10;;
10851;SDS011;5479;52.046;6.314;2023-01-19T07:56:37;10.70;;;3.13;;
10851;SDS011;5479;52.046;6.314;2023-01-19T07:59:04;11.53;;;3.33;;
10851;SDS011;5479;52.046;6.314;2023-01-19T08:01:34;9.87;;;3.17;;
10851;SDS011;5479;52.046;6.314;2023-01-19T08:04:04;8.67;;;3.30;;
10851;SDS011;5479;52.046;6.314;2023-01-19T08:06:32;8.27;;;3.20;;
10851;SDS011;5479;52.046;6.314;2023-01-19T08:09:02;7.53;;;3.53;;
10851;SDS011;5479;52.046;6.314;2023-01-19T08:11:32;9.03;;;3.80;;
10851;SDS011;5479;52.046;6.314;2023-01-19T08:14:00;8.93;;;3.30;;
10851;SDS011;5479;52.046;6.314;2023-01-19T08:16:30;9.73;;;3.63;;
10851;SDS011;5479;52.046;6.314;2023-01-19T08:18:59;11.90;;;3.67;;
10851;SDS011;5479;52.046;6.314;2023-01-19T08:21:28;9.57;;;3.20;;
10851;SDS011;5479;52.046;6.314;2023-01-19T08:23:58;11.20;;;3.70;;
10851;SDS011;5479;52.046;6.314;2023-01-19T08:26:27;10.07;;;3.43;;
10851;SDS011;5479;52.046;6.314;2023-01-19T08:28:56;13.43;;;2.93;;
10851;SDS011;5479;52.046;6.314;2023-01-19T08:31:26;6.43;;;2.60;;
10851;SDS011;5479;52.046;6.314;2023-01-19T08:33:54;9.60;;;2.87;;
10851;SDS011;5479;52.046;6.314;2023-01-19T08:36:22;9.87;;;2.73;;
10851;SDS011;5479;52.046;6.314;2023-01-19T08:38:51;7.20;;;2.10;;
10851;SDS011;5479;52.046;6.314;2023-01-19T08:41:21;8.03;;;2.07;;
10851;SDS011;5479;52.046;6.314;2023-01-19T08:43:49;7.57;;;3.30;;
10851;SDS011;5479;52.046;6.314;2023-01-19T08:46:17;8.60;;;3.97;;
10851;SDS011;5479;52.046;6.314;2023-01-19T08:48:47;10.53;;;4.50;;
10851;SDS011;5479;52.046;6.314;2023-01-19T08:51:15;8.17;;;4.73;;
10851;SDS011;5479;52.046;6.314;2023-01-19T08:53:46;8.40;;;5.00;;
10851;SDS011;5479;52.046;6.314;2023-01-19T08:56:15;11.27;;;5.20;;
10851;SDS011;5479;52.046;6.314;2023-01-19T08:58:43;10.67;;;5.07;;
10851;SDS011;5479;52.046;6.314;2023-01-19T09:01:12;9.10;;;5.10;;
10851;SDS011;5479;52.046;6.314;2023-01-19T09:03:42;10.63;;;4.90;;
10851;SDS011;5479;52.046;6.314;2023-01-19T09:06:11;10.47;;;4.93;;
10851;SDS011;5479;52.046;6.314;2023-01-19T09:08:42;9.43;;;4.50;;
10851;SDS011;5479;52.046;6.314;2023-01-19T09:11:10;8.63;;;4.40;;
10851;SDS011;5479;52.046;6.314;2023-01-19T09:13:40;10.37;;;5.40;;
10851;SDS011;5479;52.046;6.314;2023-01-19T09:16:08;10.77;;;5.73;;
10851;SDS011;5479;52.046;6.314;2023-01-19T09:18:38;9.10;;;5.63;;
10851;SDS011;5479;52.046;6.314;2023-01-19T09:21:06;11.47;;;5.30;;
10851;SDS011;5479;52.046;6.314;2023-01-19T09:23:34;11.93;;;5.80;;
10851;SDS011;5479;52.046;6.314;2023-01-19T09:26:03;9.27;;;5.40;;
10851;SDS011;5479;52.046;6.314;2023-01-19T09:28:32;10.57;;;5.57;;
10851;SDS011;5479;52.046;6.314;2023-01-19T09:31:04;8.90;;;4.47;;
10851;SDS011;5479;52.046;6.314;2023-01-19T09:33:33;9.17;;;4.27;;
10851;SDS011;5479;52.046;6.314;2023-01-19T09:36:01;11.73;;;4.33;;
10851;SDS011;5479;52.046;6.314;2023-01-19T09:38:29;8.00;;;3.73;;
10851;SDS011;5479;52.046;6.314;2023-01-19T09:40:58;9.17;;;3.57;;
10851;SDS011;5479;52.046;6.314;2023-01-19T09:43:37;5.97;;;3.20;;
10851;SDS011;5479;52.046;6.314;2023-01-19T09:46:11;6.80;;;2.80;;
10851;SDS011;5479;52.046;6.314;2023-01-19T09:48:43;9.73;;;2.73;;
10851;SDS011;5479;52.046;6.314;2023-01-19T09:51:17;4.80;;;1.93;;
10851;SDS011;5479;52.046;6.314;2023-01-19T09:53:53;5.00;;;1.90;;
10851;SDS011;5479;52.046;6.314;2023-01-19T09:56:26;6.00;;;2.23;;
10851;SDS011;5479;52.046;6.314;2023-01-19T09:58:56;8.37;;;2.57;;
10851;SDS011;5479;52.046;6.314;2023-01-19T10:01:34;8.03;;;2.63;;
10851;SDS011;5479;52.046;6.314;2023-01-19T10:04:10;8.00;;;3.60;;
10851;SDS011;5479;52.046;6.314;2023-01-19T10:06:49;7.43;;;3.97;;
10851;SDS011;5479;52.046;6.314;2023-01-19T10:09:23;7.90;;;3.67;;
10851;SDS011;5479;52.046;6.314;2023-01-19T10:11:59;8.23;;;4.03;;
10851;SDS011;5479;52.046;6.314;2023-01-19T10:14:31;7.40;;;3.60;;
10851;SDS011;5479;52.046;6.314;2023-01-19T10:17:11;7.67;;;3.60;;
10851;SDS011;5479;52.046;6.314;2023-01-19T10:19:48;8.07;;;3.47;;
10851;SDS011;5479;52.046;6.314;2023-01-19T10:22:21;9.97;;;3.70;;
10851;SDS011;5479;52.046;6.314;2023-01-19T10:24:51;8.67;;;4.20;;
10851;SDS011;5479;52.046;6.314;2023-01-19T10:27:23;9.37;;;3.90;;
10851;SDS011;5479;52.046;6.314;2023-01-19T10:29:53;10.30;;;3.87;;
10851;SDS011;5479;52.046;6.314;2023-01-19T10:32:25;11.17;;;4.37;;
10851;SDS011;5479;52.046;6.314;2023-01-19T10:34:55;10.63;;;4.00;;
10851;SDS011;5479;52.046;6.314;2023-01-19T10:37:27;9.57;;;4.10;;
10851;SDS011;5479;52.046;6.314;2023-01-19T10:39:59;9.07;;;3.73;;
10851;SDS011;5479;52.046;6.314;2023-01-19T10:42:40;9.77;;;4.17;;
10851;SDS011;5479;52.046;6.314;2023-01-19T10:45:13;7.83;;;4.23;;
10851;SDS011;5479;52.046;6.314;2023-01-19T10:47:44;10.30;;;4.53;;
10851;SDS011;5479;52.046;6.314;2023-01-19T10:53:00;8.47;;;4.43;;
10851;SDS011;5479;52.046;6.314;2023-01-19T10:55:31;9.10;;;4.03;;
10851;SDS011;5479;52.046;6.314;2023-01-19T10:58:03;9.53;;;4.40;;
10851;SDS011;5479;52.046;6.314;2023-01-19T11:00:32;10.60;;;4.70;;
10851;SDS011;5479;52.046;6.314;2023-01-19T11:03:04;10.20;;;4.80;;
10851;SDS011;5479;52.046;6.314;2023-01-19T11:05:48;10.17;;;4.90;;
10851;SDS011;5479;52.046;6.314;2023-01-19T11:08:21;10.67;;;4.13;;
10851;SDS011;5479;52.046;6.314;2023-01-19T11:10:53;13.60;;;4.23;;
10851;SDS011;5479;52.046;6.314;2023-01-19T11:13:27;9.43;;;4.40;;
10851;SDS011;5479;52.046;6.314;2023-01-19T11:15:56;11.20;;;4.07;;
10851;SDS011;5479;52.046;6.314;2023-01-19T11:18:27;9.73;;;3.70;;
10851;SDS011;5479;52.046;6.314;2023-01-19T11:20:57;11.03;;;4.43;;
10851;SDS011;5479;52.046;6.314;2023-01-19T11:23:27;9.60;;;3.93;;
10851;SDS011;5479;52.046;6.314;2023-01-19T11:25:59;10.50;;;3.23;;
10851;SDS011;5479;52.046;6.314;2023-01-19T11:28:30;8.27;;;3.90;;
10851;SDS011;5479;52.046;6.314;2023-01-19T11:31:01;9.27;;;3.03;;
10851;SDS011;5479;52.046;6.314;2023-01-19T11:33:33;10.10;;;3.30;;
10851;SDS011;5479;52.046;6.314;2023-01-19T11:36:04;8.47;;;3.33;;
10851;SDS011;5479;52.046;6.314;2023-01-19T11:38:39;7.53;;;2.73;;
10851;SDS011;5479;52.046;6.314;2023-01-19T11:41:12;12.40;;;3.17;;
10851;SDS011;5479;52.046;6.314;2023-01-19T11:43:45;9.37;;;3.10;;
10851;SDS011;5479;52.046;6.314;2023-01-19T11:46:17;7.47;;;3.03;;
10851;SDS011;5479;52.046;6.314;2023-01-19T11:48:48;8.70;;;2.77;;
10851;SDS011;5479;52.046;6.314;2023-01-19T11:51:24;9.30;;;2.70;;
10851;SDS011;5479;52.046;6.314;2023-01-19T11:53:56;8.93;;;3.00;;
10851;SDS011;5479;52.046;6.314;2023-01-19T11:56:25;12.00;;;3.33;;
10851;SDS011;5479;52.046;6.314;2023-01-19T11:58:55;8.77;;;3.07;;
10851;SDS011;5479;52.046;6.314;2023-01-19T12:01:24;10.13;;;3.37;;
10851;SDS011;5479;52.046;6.314;2023-01-19T12:03:58;8.67;;;3.30;;
10851;SDS011;5479;52.046;6.314;2023-01-19T12:06:31;9.17;;;3.60;;
10851;SDS011;5479;52.046;6.314;2023-01-19T12:09:03;10.00;;;3.93;;
10851;SDS011;5479;52.046;6.314;2023-01-19T12:11:38;8.40;;;3.47;;
10851;SDS011;5479;52.046;6.314;2023-01-19T12:14:12;11.03;;;3.83;;
10851;SDS011;5479;52.046;6.314;2023-01-19T12:16:45;8.57;;;3.60;;
10851;SDS011;5479;52.046;6.314;2023-01-19T12:19:17;7.73;;;3.53;;
10851;SDS011;5479;52.046;6.314;2023-01-19T12:21:49;9.43;;;3.87;;
10851;SDS011;5479;52.046;6.314;2023-01-19T12:24:21;11.43;;;4.53;;
10851;SDS011;5479;52.046;6.314;2023-01-19T12:26:57;9.17;;;4.23;;
10851;SDS011;5479;52.046;6.314;2023-01-19T12:29:28;9.53;;;4.03;;
10851;SDS011;5479;52.046;6.314;2023-01-19T12:32:18;11.27;;;4.10;;
10851;SDS011;5479;52.046;6.314;2023-01-19T12:34:59;8.00;;;3.20;;
10851;SDS011;5479;52.046;6.314;2023-01-19T12:37:30;10.30;;;3.80;;
10851;SDS011;5479;52.046;6.314;2023-01-19T12:40:16;8.03;;;4.30;;
10851;SDS011;5479;52.046;6.314;2023-01-19T12:42:50;9.23;;;4.60;;
10851;SDS011;5479;52.046;6.314;2023-01-19T12:45:23;10.33;;;4.53;;
10851;SDS011;5479;52.046;6.314;2023-01-19T12:47:57;13.67;;;5.37;;
10851;SDS011;5479;52.046;6.314;2023-01-19T12:50:29;9.43;;;5.37;;
10851;SDS011;5479;52.046;6.314;2023-01-19T12:53:01;12.20;;;5.80;;
10851;SDS011;5479;52.046;6.314;2023-01-19T12:55:33;12.63;;;6.37;;
10851;SDS011;5479;52.046;6.314;2023-01-19T12:58:05;11.50;;;6.37;;
10851;SDS011;5479;52.046;6.314;2023-01-19T13:00:35;10.47;;;6.17;;
10851;SDS011;5479;52.046;6.314;2023-01-19T13:06:19;12.67;;;6.63;;
10851;SDS011;5479;52.046;6.314;2023-01-19T13:09:32;13.73;;;7.40;;
10851;SDS011;5479;52.046;6.314;2023-01-19T13:17:55;13.27;;;7.30;;
10851;SDS011;5479;52.046;6.314;2023-01-19T13:20:25;14.43;;;8.17;;
10851;SDS011;5479;52.046;6.314;2023-01-19T13:26:00;13.03;;;8.53;;
10851;SDS011;5479;52.046;6.314;2023-01-19T13:28:32;12.50;;;7.10;;
10851;SDS011;5479;52.046;6.314;2023-01-19T13:31:04;12.33;;;7.10;;
10851;SDS011;5479;52.046;6.314;2023-01-19T13:33:41;12.23;;;7.23;;
10851;SDS011;5479;52.046;6.314;2023-01-19T13:36:15;12.53;;;7.20;;
10851;SDS011;5479;52.046;6.314;2023-01-19T13:38:47;14.37;;;6.73;;
10851;SDS011;5479;52.046;6.314;2023-01-19T13:41:19;14.73;;;8.00;;
10851;SDS011;5479;52.046;6.314;2023-01-19T13:43:55;12.93;;;7.67;;
10851;SDS011;5479;52.046;6.314;2023-01-19T13:46:27;12.53;;;6.97;;
10851;SDS011;5479;52.046;6.314;2023-01-19T13:48:59;12.27;;;6.67;;
10851;SDS011;5479;52.046;6.314;2023-01-19T13:51:30;10.27;;;6.97;;
10851;SDS011;5479;52.046;6.314;2023-01-19T13:53:59;12.53;;;6.63;;
10851;SDS011;5479;52.046;6.314;2023-01-19T13:56:29;11.13;;;6.03;;
10851;SDS011;5479;52.046;6.314;2023-01-19T13:59:09;10.47;;;6.00;;
10851;SDS011;5479;52.046;6.314;2023-01-19T14:01:39;12.57;;;5.00;;
10851;SDS011;5479;52.046;6.314;2023-01-19T14:04:24;9.30;;;5.10;;
10851;SDS011;5479;52.046;6.314;2023-01-19T14:06:55;10.17;;;4.53;;
10851;SDS011;5479;52.046;6.314;2023-01-19T14:09:25;11.03;;;4.60;;
10851;SDS011;5479;52.046;6.314;2023-01-19T14:14:40;7.73;;;4.20;;
10851;SDS011;5479;52.046;6.314;2023-01-19T14:17:21;8.43;;;3.97;;
10851;SDS011;5479;52.046;6.314;2023-01-19T14:19:51;8.50;;;4.27;;
10851;SDS011;5479;52.046;6.314;2023-01-19T14:22:20;9.70;;;4.20;;
10851;SDS011;5479;52.046;6.314;2023-01-19T14:30:57;9.27;;;3.90;;
10851;SDS011;5479;52.046;6.314;2023-01-19T14:33:38;8.40;;;4.00;;
10851;SDS011;5479;52.046;6.314;2023-01-19T14:36:09;9.10;;;3.90;;
10851;SDS011;5479;52.046;6.314;2023-01-19T14:38:47;8.97;;;4.10;;
10851;SDS011;5479;52.046;6.314;2023-01-19T14:41:21;10.47;;;3.60;;
10851;SDS011;5479;52.046;6.314;2023-01-19T14:43:52;9.63;;;3.50;;
10851;SDS011;5479;52.046;6.314;2023-01-19T14:46:23;9.07;;;3.03;;
10851;SDS011;5479;52.046;6.314;2023-01-19T14:48:53;5.03;;;2.40;;
10851;SDS011;5479;52.046;6.314;2023-01-19T14:51:27;5.53;;;2.70;;
10851;SDS011;5479;52.046;6.314;2023-01-19T14:53:56;5.27;;;2.53;;
10851;SDS011;5479;52.046;6.314;2023-01-19T14:56:29;4.93;;;2.20;;
10851;SDS011;5479;52.046;6.314;2023-01-19T14:58:59;7.20;;;2.00;;
10851;SDS011;5479;52.046;6.314;2023-01-19T15:01:30;5.93;;;2.43;;
10851;SDS011;5479;52.046;6.314;2023-01-19T15:03:58;7.63;;;2.60;;
10851;SDS011;5479;52.046;6.314;2023-01-19T15:06:26;6.80;;;2.40;;
10851;SDS011;5479;52.046;6.314;2023-01-19T15:08:53;6.23;;;2.13;;
10851;SDS011;5479;52.046;6.314;2023-01-19T15:11:22;4.50;;;1.70;;
10851;SDS011;5479;52.046;6.314;2023-01-19T15:13:53;4.10;;;1.67;;
10851;SDS011;5479;52.046;6.314;2023-01-19T15:16:22;2.33;;;1.00;;
10851;SDS011;5479;52.046;6.314;2023-01-19T15:18:51;4.17;;;1.30;;
10851;SDS011;5479;52.046;6.314;2023-01-19T15:21:20;3.40;;;1.20;;
10851;SDS011;5479;52.046;6.314;2023-01-19T15:23:51;4.30;;;1.40;;
10851;SDS011;5479;52.046;6.314;2023-01-19T15:26:20;7.17;;;1.20;;
10851;SDS011;5479;52.046;6.314;2023-01-19T15:28:50;2.67;;;1.40;;
10851;SDS011;5479;52.046;6.314;2023-01-19T15:31:19;3.53;;;1.40;;
10851;SDS011;5479;52.046;6.314;2023-01-19T15:33:49;4.03;;;1.60;;
10851;SDS011;5479;52.046;6.314;2023-01-19T15:36:19;6.33;;;1.60;;